Terminal Aerodrome Forecast
Issued by NWS Wichita, KS

Home | Current Version | Previous Version | Text Only | Print | Product List | Glossary Off
Versions: 1 2 3 4 5 6 7 8 9 10 11 12 13 14 15 16 17 18 19 20

000
FTUS43 KICT 031353 AAB
TAFICT
TAF AMD
KICT 031353Z 0314/0412 35013KT P6SM SCT010
     FM031430 35013KT P6SM BKN008
     FM031700 35013KT P6SM OVC018
     FM031900 36013KT P6SM OVC035
     FM032200 01009KT P6SM SCT040=

USA.gov is the U.S. government's official web portal to all federal, state and local government web resources and services.